sensor_id;sensor_type;location;lat;lon;timestamp;P1;durP1;ratioP1;P2;durP2;ratioP2
40322;SDS011;26030;51.164;17.100;2024-01-16T00:01:45;3.10;;;1.60;;
40322;SDS011;26030;51.164;17.100;2024-01-16T00:06:52;1.50;;;1.30;;
40322;SDS011;26030;51.164;17.100;2024-01-16T00:11:56;1.90;;;1.30;;
40322;SDS011;26030;51.164;17.100;2024-01-16T00:17:00;2.50;;;1.30;;
40322;SDS011;26030;51.164;17.100;2024-01-16T00:22:05;2.70;;;1.30;;
40322;SDS011;26030;51.164;17.100;2024-01-16T00:27:09;5.50;;;2.00;;
40322;SDS011;26030;51.164;17.100;2024-01-16T00:32:13;4.50;;;1.70;;
40322;SDS011;26030;51.164;17.100;2024-01-16T00:37:23;6.40;;;2.00;;
40322;SDS011;26030;51.164;17.100;2024-01-16T00:42:28;3.80;;;1.70;;
40322;SDS011;26030;51.164;17.100;2024-01-16T00:47:33;2.80;;;1.60;;
40322;SDS011;26030;51.164;17.100;2024-01-16T00:52:37;6.00;;;1.90;;
40322;SDS011;26030;51.164;17.100;2024-01-16T00:57:42;2.00;;;1.00;;
40322;SDS011;26030;51.164;17.100;2024-01-16T01:02:46;3.70;;;1.70;;
40322;SDS011;26030;51.164;17.100;2024-01-16T01:07:50;1.50;;;1.30;;
40322;SDS011;26030;51.164;17.100;2024-01-16T01:12:55;2.10;;;1.40;;
40322;SDS011;26030;51.164;17.100;2024-01-16T01:17:59;2.80;;;1.50;;
40322;SDS011;26030;51.164;17.100;2024-01-16T01:23:04;3.20;;;1.70;;
40322;SDS011;26030;51.164;17.100;2024-01-16T01:28:12;1.30;;;0.90;;
40322;SDS011;26030;51.164;17.100;2024-01-16T01:33:16;1.70;;;1.00;;
40322;SDS011;26030;51.164;17.100;2024-01-16T01:38:23;1.00;;;0.80;;
40322;SDS011;26030;51.164;17.100;2024-01-16T01:43:27;2.90;;;1.40;;
40322;SDS011;26030;51.164;17.100;2024-01-16T01:48:32;1.20;;;1.10;;
40322;SDS011;26030;51.164;17.100;2024-01-16T01:53:38;2.00;;;1.10;;
40322;SDS011;26030;51.164;17.100;2024-01-16T01:58:45;1.00;;;0.60;;
40322;SDS011;26030;51.164;17.100;2024-01-16T02:03:52;2.00;;;1.20;;
40322;SDS011;26030;51.164;17.100;2024-01-16T02:08:59;1.40;;;1.20;;
40322;SDS011;26030;51.164;17.100;2024-01-16T02:14:03;2.20;;;1.30;;
40322;SDS011;26030;51.164;17.100;2024-01-16T02:19:08;1.20;;;1.10;;
40322;SDS011;26030;51.164;17.100;2024-01-16T02:24:13;2.10;;;1.30;;
40322;SDS011;26030;51.164;17.100;2024-01-16T02:29:18;2.40;;;1.50;;
40322;SDS011;26030;51.164;17.100;2024-01-16T02:34:23;1.70;;;1.20;;
40322;SDS011;26030;51.164;17.100;2024-01-16T02:39:27;1.80;;;1.10;;
40322;SDS011;26030;51.164;17.100;2024-01-16T02:44:32;3.70;;;1.30;;
40322;SDS011;26030;51.164;17.100;2024-01-16T02:49:37;1.50;;;1.20;;
40322;SDS011;26030;51.164;17.100;2024-01-16T02:54:41;1.30;;;1.00;;
40322;SDS011;26030;51.164;17.100;2024-01-16T02:59:46;1.00;;;0.80;;
40322;SDS011;26030;51.164;17.100;2024-01-16T03:04:51;1.50;;;0.90;;
40322;SDS011;26030;51.164;17.100;2024-01-16T03:09:55;2.00;;;1.10;;
40322;SDS011;26030;51.164;17.100;2024-01-16T03:14:59;1.80;;;1.10;;
40322;SDS011;26030;51.164;17.100;2024-01-16T03:20:05;1.50;;;1.00;;
40322;SDS011;26030;51.164;17.100;2024-01-16T03:25:09;1.80;;;1.00;;
40322;SDS011;26030;51.164;17.100;2024-01-16T03:30:16;1.10;;;1.00;;
40322;SDS011;26030;51.164;17.100;2024-01-16T03:35:26;2.80;;;1.40;;
40322;SDS011;26030;51.164;17.100;2024-01-16T03:40:31;0.90;;;0.90;;
40322;SDS011;26030;51.164;17.100;2024-01-16T03:45:38;2.40;;;1.10;;
40322;SDS011;26030;51.164;17.100;2024-01-16T03:50:43;2.00;;;1.20;;
40322;SDS011;26030;51.164;17.100;2024-01-16T03:55:50;1.10;;;0.90;;
40322;SDS011;26030;51.164;17.100;2024-01-16T04:00:54;2.00;;;1.10;;
40322;SDS011;26030;51.164;17.100;2024-01-16T04:06:00;0.80;;;0.80;;
40322;SDS011;26030;51.164;17.100;2024-01-16T04:11:05;3.60;;;1.50;;
40322;SDS011;26030;51.164;17.100;2024-01-16T04:16:12;1.50;;;1.00;;
40322;SDS011;26030;51.164;17.100;2024-01-16T04:21:16;1.70;;;1.10;;
40322;SDS011;26030;51.164;17.100;2024-01-16T04:26:23;0.90;;;0.90;;
40322;SDS011;26030;51.164;17.100;2024-01-16T04:31:29;1.00;;;0.70;;
40322;SDS011;26030;51.164;17.100;2024-01-16T04:36:34;2.10;;;1.20;;
40322;SDS011;26030;51.164;17.100;2024-01-16T04:41:38;3.20;;;1.20;;
40322;SDS011;26030;51.164;17.100;2024-01-16T04:46:42;1.90;;;1.00;;
40322;SDS011;26030;51.164;17.100;2024-01-16T04:51:49;2.60;;;1.10;;
40322;SDS011;26030;51.164;17.100;2024-01-16T04:56:54;2.50;;;1.00;;
40322;SDS011;26030;51.164;17.100;2024-01-16T05:01:58;3.70;;;1.40;;
40322;SDS011;26030;51.164;17.100;2024-01-16T05:07:02;1.60;;;0.80;;
40322;SDS011;26030;51.164;17.100;2024-01-16T05:12:07;4.60;;;1.20;;
40322;SDS011;26030;51.164;17.100;2024-01-16T05:17:12;3.20;;;1.40;;
40322;SDS011;26030;51.164;17.100;2024-01-16T05:22:16;4.70;;;1.50;;
40322;SDS011;26030;51.164;17.100;2024-01-16T05:27:21;2.20;;;1.00;;
40322;SDS011;26030;51.164;17.100;2024-01-16T05:32:25;1.60;;;0.80;;
40322;SDS011;26030;51.164;17.100;2024-01-16T05:37:30;1.30;;;0.70;;
40322;SDS011;26030;51.164;17.100;2024-01-16T05:42:35;2.80;;;1.20;;
40322;SDS011;26030;51.164;17.100;2024-01-16T05:47:39;1.30;;;0.80;;
40322;SDS011;26030;51.164;17.100;2024-01-16T05:52:44;0.70;;;0.70;;
40322;SDS011;26030;51.164;17.100;2024-01-16T05:57:52;1.30;;;0.90;;
40322;SDS011;26030;51.164;17.100;2024-01-16T06:02:57;2.40;;;1.00;;
40322;SDS011;26030;51.164;17.100;2024-01-16T06:08:02;1.40;;;0.80;;
40322;SDS011;26030;51.164;17.100;2024-01-16T06:13:07;1.40;;;0.70;;
40322;SDS011;26030;51.164;17.100;2024-01-16T06:18:15;2.00;;;0.90;;
40322;SDS011;26030;51.164;17.100;2024-01-16T06:23:22;3.90;;;1.40;;
40322;SDS011;26030;51.164;17.100;2024-01-16T06:28:27;1.20;;;0.90;;
40322;SDS011;26030;51.164;17.100;2024-01-16T06:33:38;1.60;;;0.90;;
40322;SDS011;26030;51.164;17.100;2024-01-16T06:38:45;2.30;;;1.00;;
40322;SDS011;26030;51.164;17.100;2024-01-16T06:43:50;2.50;;;0.90;;
40322;SDS011;26030;51.164;17.100;2024-01-16T06:48:55;2.00;;;1.00;;
40322;SDS011;26030;51.164;17.100;2024-01-16T06:54:03;1.10;;;0.90;;
40322;SDS011;26030;51.164;17.100;2024-01-16T06:59:08;2.30;;;1.30;;
40322;SDS011;26030;51.164;17.100;2024-01-16T07:04:30;1.70;;;1.00;;
40322;SDS011;26030;51.164;17.100;2024-01-16T07:09:38;3.50;;;1.20;;
40322;SDS011;26030;51.164;17.100;2024-01-16T07:14:45;1.60;;;1.20;;
40322;SDS011;26030;51.164;17.100;2024-01-16T07:19:52;3.50;;;1.30;;
40322;SDS011;26030;51.164;17.100;2024-01-16T07:24:57;1.80;;;1.30;;
40322;SDS011;26030;51.164;17.100;2024-01-16T07:30:05;1.70;;;1.10;;
40322;SDS011;26030;51.164;17.100;2024-01-16T07:35:10;1.60;;;1.00;;
40322;SDS011;26030;51.164;17.100;2024-01-16T07:40:15;1.40;;;1.00;;
40322;SDS011;26030;51.164;17.100;2024-01-16T07:45:22;3.40;;;1.60;;
40322;SDS011;26030;51.164;17.100;2024-01-16T07:50:27;2.50;;;1.20;;
40322;SDS011;26030;51.164;17.100;2024-01-16T07:55:32;1.00;;;0.80;;
40322;SDS011;26030;51.164;17.100;2024-01-16T08:00:36;1.70;;;1.20;;
40322;SDS011;26030;51.164;17.100;2024-01-16T08:05:41;1.00;;;0.90;;
40322;SDS011;26030;51.164;17.100;2024-01-16T08:10:45;1.50;;;1.00;;
40322;SDS011;26030;51.164;17.100;2024-01-16T08:15:53;1.50;;;1.20;;
40322;SDS011;26030;51.164;17.100;2024-01-16T08:20:57;1.90;;;1.50;;
40322;SDS011;26030;51.164;17.100;2024-01-16T08:26:02;1.20;;;1.00;;
40322;SDS011;26030;51.164;17.100;2024-01-16T08:31:06;1.70;;;1.30;;
40322;SDS011;26030;51.164;17.100;2024-01-16T08:36:10;2.30;;;1.50;;
40322;SDS011;26030;51.164;17.100;2024-01-16T08:41:15;1.60;;;1.20;;
40322;SDS011;26030;51.164;17.100;2024-01-16T08:46:20;1.10;;;1.00;;
40322;SDS011;26030;51.164;17.100;2024-01-16T08:51:25;1.90;;;1.30;;
40322;SDS011;26030;51.164;17.100;2024-01-16T08:56:30;2.50;;;1.40;;
40322;SDS011;26030;51.164;17.100;2024-01-16T09:01:35;3.80;;;1.60;;
40322;SDS011;26030;51.164;17.100;2024-01-16T09:06:40;1.40;;;1.20;;
40322;SDS011;26030;51.164;17.100;2024-01-16T09:11:48;1.80;;;1.50;;
40322;SDS011;26030;51.164;17.100;2024-01-16T09:16:55;1.80;;;1.40;;
40322;SDS011;26030;51.164;17.100;2024-01-16T09:22:01;1.90;;;1.20;;
40322;SDS011;26030;51.164;17.100;2024-01-16T09:27:07;2.70;;;1.10;;
40322;SDS011;26030;51.164;17.100;2024-01-16T09:32:13;1.10;;;0.90;;
40322;SDS011;26030;51.164;17.100;2024-01-16T09:37:18;1.30;;;1.00;;
40322;SDS011;26030;51.164;17.100;2024-01-16T09:42:23;2.40;;;1.40;;
40322;SDS011;26030;51.164;17.100;2024-01-16T09:47:32;3.40;;;1.60;;
40322;SDS011;26030;51.164;17.100;2024-01-16T09:52:58;1.90;;;1.40;;
40322;SDS011;26030;51.164;17.100;2024-01-16T09:58:08;1.60;;;1.40;;
40322;SDS011;26030;51.164;17.100;2024-01-16T10:03:16;1.10;;;1.00;;
40322;SDS011;26030;51.164;17.100;2024-01-16T10:08:22;1.70;;;1.10;;
40322;SDS011;26030;51.164;17.100;2024-01-16T10:13:27;1.10;;;1.00;;
40322;SDS011;26030;51.164;17.100;2024-01-16T10:18:31;2.10;;;1.40;;
40322;SDS011;26030;51.164;17.100;2024-01-16T10:23:38;1.80;;;1.30;;
40322;SDS011;26030;51.164;17.100;2024-01-16T10:28:43;1.20;;;1.00;;
40322;SDS011;26030;51.164;17.100;2024-01-16T10:33:47;1.40;;;1.00;;
40322;SDS011;26030;51.164;17.100;2024-01-16T10:38:52;1.30;;;1.20;;
40322;SDS011;26030;51.164;17.100;2024-01-16T10:44:07;1.50;;;1.10;;
40322;SDS011;26030;51.164;17.100;2024-01-16T10:49:12;1.60;;;1.30;;
40322;SDS011;26030;51.164;17.100;2024-01-16T10:54:26;2.30;;;1.40;;
40322;SDS011;26030;51.164;17.100;2024-01-16T10:59:36;1.80;;;1.30;;
40322;SDS011;26030;51.164;17.100;2024-01-16T11:04:52;1.90;;;1.20;;
40322;SDS011;26030;51.164;17.100;2024-01-16T11:09:57;1.80;;;1.10;;
40322;SDS011;26030;51.164;17.100;2024-01-16T11:15:02;1.60;;;1.20;;
40322;SDS011;26030;51.164;17.100;2024-01-16T11:20:14;1.80;;;0.90;;
40322;SDS011;26030;51.164;17.100;2024-01-16T11:25:39;1.00;;;0.80;;
40322;SDS011;26030;51.164;17.100;2024-01-16T11:30:43;2.60;;;1.00;;
40322;SDS011;26030;51.164;17.100;2024-01-16T11:35:48;2.40;;;1.10;;
40322;SDS011;26030;51.164;17.100;2024-01-16T11:40:58;1.50;;;0.90;;
40322;SDS011;26030;51.164;17.100;2024-01-16T11:46:07;1.60;;;1.10;;
40322;SDS011;26030;51.164;17.100;2024-01-16T11:51:25;1.30;;;1.00;;
40322;SDS011;26030;51.164;17.100;2024-01-16T11:56:44;2.30;;;1.30;;
40322;SDS011;26030;51.164;17.100;2024-01-16T12:01:57;1.00;;;0.90;;
40322;SDS011;26030;51.164;17.100;2024-01-16T12:07:06;1.60;;;1.20;;
40322;SDS011;26030;51.164;17.100;2024-01-16T12:12:15;2.50;;;1.60;;
40322;SDS011;26030;51.164;17.100;2024-01-16T12:17:19;5.00;;;1.90;;
40322;SDS011;26030;51.164;17.100;2024-01-16T12:22:24;2.50;;;1.40;;
40322;SDS011;26030;51.164;17.100;2024-01-16T12:27:29;3.00;;;1.30;;
40322;SDS011;26030;51.164;17.100;2024-01-16T12:32:34;2.00;;;1.40;;
40322;SDS011;26030;51.164;17.100;2024-01-16T12:37:38;1.10;;;0.90;;
40322;SDS011;26030;51.164;17.100;2024-01-16T12:42:42;1.30;;;1.10;;
40322;SDS011;26030;51.164;17.100;2024-01-16T12:47:53;0.90;;;0.90;;
40322;SDS011;26030;51.164;17.100;2024-01-16T12:53:06;0.70;;;0.70;;
40322;SDS011;26030;51.164;17.100;2024-01-16T13:03:27;0.90;;;0.80;;
40322;SDS011;26030;51.164;17.100;2024-01-16T13:08:31;1.60;;;1.10;;
40322;SDS011;26030;51.164;17.100;2024-01-16T13:13:36;1.80;;;1.10;;
40322;SDS011;26030;51.164;17.100;2024-01-16T13:18:41;2.00;;;1.40;;
40322;SDS011;26030;51.164;17.100;2024-01-16T13:23:46;1.20;;;1.10;;
40322;SDS011;26030;51.164;17.100;2024-01-16T13:28:51;1.50;;;1.00;;
40322;SDS011;26030;51.164;17.100;2024-01-16T13:33:55;2.00;;;1.20;;
40322;SDS011;26030;51.164;17.100;2024-01-16T13:39:00;1.40;;;1.30;;
40322;SDS011;26030;51.164;17.100;2024-01-16T13:44:05;2.00;;;1.40;;
40322;SDS011;26030;51.164;17.100;2024-01-16T13:49:11;2.20;;;1.20;;
40322;SDS011;26030;51.164;17.100;2024-01-16T13:54:16;1.10;;;0.90;;
40322;SDS011;26030;51.164;17.100;2024-01-16T13:59:20;1.30;;;1.00;;
40322;SDS011;26030;51.164;17.100;2024-01-16T14:04:25;2.20;;;1.00;;
40322;SDS011;26030;51.164;17.100;2024-01-16T14:09:35;0.80;;;0.80;;
40322;SDS011;26030;51.164;17.100;2024-01-16T14:14:40;1.10;;;1.00;;
40322;SDS011;26030;51.164;17.100;2024-01-16T14:19:45;1.40;;;1.20;;
40322;SDS011;26030;51.164;17.100;2024-01-16T14:24:49;0.90;;;0.80;;
40322;SDS011;26030;51.164;17.100;2024-01-16T14:29:55;1.10;;;0.90;;
40322;SDS011;26030;51.164;17.100;2024-01-16T14:35:00;0.90;;;0.80;;
40322;SDS011;26030;51.164;17.100;2024-01-16T14:40:06;2.20;;;1.10;;
40322;SDS011;26030;51.164;17.100;2024-01-16T14:45:31;1.10;;;0.80;;
40322;SDS011;26030;51.164;17.100;2024-01-16T14:50:35;1.10;;;1.00;;
40322;SDS011;26030;51.164;17.100;2024-01-16T14:55:40;1.30;;;1.10;;
40322;SDS011;26030;51.164;17.100;2024-01-16T15:00:44;1.80;;;1.30;;
40322;SDS011;26030;51.164;17.100;2024-01-16T15:05:51;1.40;;;1.20;;
40322;SDS011;26030;51.164;17.100;2024-01-16T15:11:00;1.60;;;1.30;;
40322;SDS011;26030;51.164;17.100;2024-01-16T15:16:04;2.20;;;1.40;;
40322;SDS011;26030;51.164;17.100;2024-01-16T15:21:09;3.90;;;1.40;;
40322;SDS011;26030;51.164;17.100;2024-01-16T15:26:14;0.80;;;0.80;;
40322;SDS011;26030;51.164;17.100;2024-01-16T15:31:27;1.30;;;1.10;;
40322;SDS011;26030;51.164;17.100;2024-01-16T15:36:32;3.70;;;1.50;;
40322;SDS011;26030;51.164;17.100;2024-01-16T15:41:40;1.70;;;1.10;;
40322;SDS011;26030;51.164;17.100;2024-01-16T15:46:59;2.10;;;1.40;;
40322;SDS011;26030;51.164;17.100;2024-01-16T15:52:07;2.50;;;1.10;;
40322;SDS011;26030;51.164;17.100;2024-01-16T15:57:12;1.50;;;1.00;;
40322;SDS011;26030;51.164;17.100;2024-01-16T16:02:17;2.40;;;1.30;;
40322;SDS011;26030;51.164;17.100;2024-01-16T16:07:25;2.10;;;1.00;;
40322;SDS011;26030;51.164;17.100;2024-01-16T16:12:32;1.10;;;0.90;;
40322;SDS011;26030;51.164;17.100;2024-01-16T16:17:45;1.70;;;1.40;;
40322;SDS011;26030;51.164;17.100;2024-01-16T16:22:50;1.60;;;1.30;;
40322;SDS011;26030;51.164;17.100;2024-01-16T16:27:55;2.50;;;1.50;;
40322;SDS011;26030;51.164;17.100;2024-01-16T16:32:59;1.80;;;1.40;;
40322;SDS011;26030;51.164;17.100;2024-01-16T16:38:04;1.60;;;1.30;;
40322;SDS011;26030;51.164;17.100;2024-01-16T16:43:12;3.30;;;1.40;;
40322;SDS011;26030;51.164;17.100;2024-01-16T16:48:17;2.70;;;1.20;;
40322;SDS011;26030;51.164;17.100;2024-01-16T16:53:21;1.40;;;1.30;;
40322;SDS011;26030;51.164;17.100;2024-01-16T16:58:29;2.90;;;1.70;;
40322;SDS011;26030;51.164;17.100;2024-01-16T17:03:34;3.50;;;1.90;;
40322;SDS011;26030;51.164;17.100;2024-01-16T17:08:40;2.60;;;1.70;;
40322;SDS011;26030;51.164;17.100;2024-01-16T17:13:45;1.70;;;1.60;;
40322;SDS011;26030;51.164;17.100;2024-01-16T17:18:50;2.50;;;1.80;;
40322;SDS011;26030;51.164;17.100;2024-01-16T17:23:58;2.40;;;1.60;;
40322;SDS011;26030;51.164;17.100;2024-01-16T17:29:04;2.70;;;1.80;;
40322;SDS011;26030;51.164;17.100;2024-01-16T17:34:09;2.30;;;1.70;;
40322;SDS011;26030;51.164;17.100;2024-01-16T17:39:14;1.60;;;1.50;;
40322;SDS011;26030;51.164;17.100;2024-01-16T17:44:22;5.50;;;2.10;;
40322;SDS011;26030;51.164;17.100;2024-01-16T17:49:31;3.00;;;2.20;;
40322;SDS011;26030;51.164;17.100;2024-01-16T17:54:43;3.40;;;2.10;;
40322;SDS011;26030;51.164;17.100;2024-01-16T17:59:55;3.80;;;2.40;;
40322;SDS011;26030;51.164;17.100;2024-01-16T18:05:02;5.20;;;2.80;;
40322;SDS011;26030;51.164;17.100;2024-01-16T18:15:21;4.40;;;2.10;;
40322;SDS011;26030;51.164;17.100;2024-01-16T18:20:36;5.80;;;2.30;;
40322;SDS011;26030;51.164;17.100;2024-01-16T18:25:44;3.50;;;2.30;;
40322;SDS011;26030;51.164;17.100;2024-01-16T18:30:52;5.20;;;3.20;;
40322;SDS011;26030;51.164;17.100;2024-01-16T18:42:58;11.60;;;4.40;;
40322;SDS011;26030;51.164;17.100;2024-01-16T18:48:06;10.20;;;3.90;;
40322;SDS011;26030;51.164;17.100;2024-01-16T18:53:11;8.80;;;3.90;;
40322;SDS011;26030;51.164;17.100;2024-01-16T18:58:17;6.40;;;3.20;;
40322;SDS011;26030;51.164;17.100;2024-01-16T19:03:26;8.70;;;4.20;;
40322;SDS011;26030;51.164;17.100;2024-01-16T19:08:33;5.40;;;3.70;;
40322;SDS011;26030;51.164;17.100;2024-01-16T19:13:38;4.50;;;3.40;;
40322;SDS011;26030;51.164;17.100;2024-01-16T19:18:44;6.40;;;4.00;;
40322;SDS011;26030;51.164;17.100;2024-01-16T19:23:50;4.30;;;3.60;;
40322;SDS011;26030;51.164;17.100;2024-01-16T19:28:56;8.20;;;4.20;;
40322;SDS011;26030;51.164;17.100;2024-01-16T19:34:03;6.50;;;4.30;;
40322;SDS011;26030;51.164;17.100;2024-01-16T19:39:10;4.80;;;3.90;;
40322;SDS011;26030;51.164;17.100;2024-01-16T19:44:19;4.40;;;3.90;;
40322;SDS011;26030;51.164;17.100;2024-01-16T19:49:25;5.70;;;4.50;;
40322;SDS011;26030;51.164;17.100;2024-01-16T19:54:33;4.70;;;4.00;;
40322;SDS011;26030;51.164;17.100;2024-01-16T19:59:46;4.50;;;3.90;;
40322;SDS011;26030;51.164;17.100;2024-01-16T20:04:51;8.50;;;4.70;;
40322;SDS011;26030;51.164;17.100;2024-01-16T20:10:00;4.90;;;4.20;;
40322;SDS011;26030;51.164;17.100;2024-01-16T20:15:18;5.40;;;4.70;;
40322;SDS011;26030;51.164;17.100;2024-01-16T20:20:26;7.60;;;5.10;;
40322;SDS011;26030;51.164;17.100;2024-01-16T20:25:31;8.40;;;4.90;;
40322;SDS011;26030;51.164;17.100;2024-01-16T20:30:36;6.60;;;4.40;;
40322;SDS011;26030;51.164;17.100;2024-01-16T20:35:47;6.00;;;4.40;;
40322;SDS011;26030;51.164;17.100;2024-01-16T20:40:51;5.60;;;4.30;;
40322;SDS011;26030;51.164;17.100;2024-01-16T20:45:56;5.40;;;4.40;;
40322;SDS011;26030;51.164;17.100;2024-01-16T20:51:05;4.40;;;4.00;;
40322;SDS011;26030;51.164;17.100;2024-01-16T20:56:10;5.00;;;4.20;;
40322;SDS011;26030;51.164;17.100;2024-01-16T21:01:15;6.70;;;4.80;;
40322;SDS011;26030;51.164;17.100;2024-01-16T21:06:19;5.30;;;4.70;;
40322;SDS011;26030;51.164;17.100;2024-01-16T21:11:27;6.20;;;5.10;;
40322;SDS011;26030;51.164;17.100;2024-01-16T21:16:31;5.40;;;4.30;;
40322;SDS011;26030;51.164;17.100;2024-01-16T21:21:36;6.20;;;4.70;;
40322;SDS011;26030;51.164;17.100;2024-01-16T21:26:47;5.60;;;4.00;;
40322;SDS011;26030;51.164;17.100;2024-01-16T21:31:52;5.70;;;4.90;;
40322;SDS011;26030;51.164;17.100;2024-01-16T21:36:57;8.50;;;5.10;;
40322;SDS011;26030;51.164;17.100;2024-01-16T21:42:05;5.80;;;4.70;;
40322;SDS011;26030;51.164;17.100;2024-01-16T21:47:10;5.20;;;4.50;;
40322;SDS011;26030;51.164;17.100;2024-01-16T21:52:17;6.70;;;5.10;;
40322;SDS011;26030;51.164;17.100;2024-01-16T21:57:25;6.30;;;4.60;;
40322;SDS011;26030;51.164;17.100;2024-01-16T22:02:32;5.80;;;4.80;;
40322;SDS011;26030;51.164;17.100;2024-01-16T22:07:40;6.30;;;4.90;;
40322;SDS011;26030;51.164;17.100;2024-01-16T22:12:47;6.50;;;5.30;;
40322;SDS011;26030;51.164;17.100;2024-01-16T22:17:52;6.00;;;4.70;;
40322;SDS011;26030;51.164;17.100;2024-01-16T22:23:13;8.70;;;5.20;;
40322;SDS011;26030;51.164;17.100;2024-01-16T22:28:18;6.00;;;4.60;;
40322;SDS011;26030;51.164;17.100;2024-01-16T22:33:22;5.90;;;4.60;;
40322;SDS011;26030;51.164;17.100;2024-01-16T22:38:28;9.40;;;5.60;;
40322;SDS011;26030;51.164;17.100;2024-01-16T22:43:33;5.40;;;4.40;;
40322;SDS011;26030;51.164;17.100;2024-01-16T22:48:38;6.20;;;4.50;;
40322;SDS011;26030;51.164;17.100;2024-01-16T22:53:45;6.10;;;5.40;;
40322;SDS011;26030;51.164;17.100;2024-01-16T22:58:50;6.80;;;5.00;;
40322;SDS011;26030;51.164;17.100;2024-01-16T23:03:55;5.60;;;4.90;;
40322;SDS011;26030;51.164;17.100;2024-01-16T23:09:01;7.10;;;5.60;;
40322;SDS011;26030;51.164;17.100;2024-01-16T23:14:09;7.20;;;5.60;;
40322;SDS011;26030;51.164;17.100;2024-01-16T23:19:15;6.00;;;4.80;;
40322;SDS011;26030;51.164;17.100;2024-01-16T23:24:19;10.00;;;5.80;;
40322;SDS011;26030;51.164;17.100;2024-01-16T23:29:24;10.30;;;5.40;;
40322;SDS011;26030;51.164;17.100;2024-01-16T23:34:40;7.40;;;5.80;;
40322;SDS011;26030;51.164;17.100;2024-01-16T23:39:47;8.10;;;5.50;;
40322;SDS011;26030;51.164;17.100;2024-01-16T23:44:53;8.80;;;5.60;;
40322;SDS011;26030;51.164;17.100;2024-01-16T23:50:02;10.40;;;6.40;;
40322;SDS011;26030;51.164;17.100;2024-01-16T23:55:10;6.90;;;5.10;;
